sensor_id;sensor_type;location;lat;lon;timestamp;pressure;altitude;pressure_sealevel;temperature;humidity
72798;BME280;61084;55.816;37.036;2023-06-01T00:01:41;99051.09;;;8.60;66.43
72798;BME280;61084;55.816;37.036;2023-06-01T00:04:08;99051.09;;;8.60;66.44
72798;BME280;61084;55.816;37.036;2023-06-01T00:06:35;99053.72;;;8.60;66.68
72798;BME280;61084;55.816;37.036;2023-06-01T00:09:01;99048.63;;;8.57;66.45
72798;BME280;61084;55.816;37.036;2023-06-01T00:11:28;99047.81;;;8.57;66.37
72798;BME280;61084;55.816;37.036;2023-06-01T00:13:54;99046.09;;;8.56;66.82
72798;BME280;61084;55.816;37.036;2023-06-01T00:16:20;99041.00;;;8.53;66.82
72798;BME280;61084;55.816;37.036;2023-06-01T00:18:48;99037.78;;;8.48;66.85
72798;BME280;61084;55.816;37.036;2023-06-01T00:21:14;99050.69;;;8.51;66.39
72798;BME280;61084;55.816;37.036;2023-06-01T00:23:40;99045.63;;;8.48;66.66
72798;BME280;61084;55.816;37.036;2023-06-01T00:26:07;99048.41;;;8.45;66.84
72798;BME280;61084;55.816;37.036;2023-06-01T00:28:34;99046.72;;;8.44;66.74
72798;BME280;61084;55.816;37.036;2023-06-01T00:31:00;99051.94;;;8.44;66.63
72798;BME280;61084;55.816;37.036;2023-06-01T00:33:26;99044.34;;;8.39;66.31
72798;BME280;61084;55.816;37.036;2023-06-01T00:35:52;99047.94;;;8.37;66.29
72798;BME280;61084;55.816;37.036;2023-06-01T00:38:19;99047.94;;;8.37;66.25
72798;BME280;61084;55.816;37.036;2023-06-01T00:40:46;99043.69;;;8.34;66.79
72798;BME280;61084;55.816;37.036;2023-06-01T00:43:16;99043.78;;;8.32;66.06
72798;BME280;61084;55.816;37.036;2023-06-01T00:45:42;99050.00;;;8.30;66.19
72798;BME280;61084;55.816;37.036;2023-06-01T00:48:08;99052.75;;;8.27;65.90
72798;BME280;61084;55.816;37.036;2023-06-01T00:50:34;99045.06;;;8.24;66.48
72798;BME280;61084;55.816;37.036;2023-06-01T00:53:00;99046.09;;;8.20;66.09
72798;BME280;61084;55.816;37.036;2023-06-01T00:55:28;99043.47;;;8.20;66.10
72798;BME280;61084;55.816;37.036;2023-06-01T00:57:55;99046.19;;;8.18;66.61
72798;BME280;61084;55.816;37.036;2023-06-01T01:00:21;99038.50;;;8.15;66.43
72798;BME280;61084;55.816;37.036;2023-06-01T01:02:48;99035.94;;;8.14;66.21
72798;BME280;61084;55.816;37.036;2023-06-01T01:05:15;99039.50;;;8.13;66.51
72798;BME280;61084;55.816;37.036;2023-06-01T01:16:43;99025.16;;;8.03;66.81
72798;BME280;61084;55.816;37.036;2023-06-01T01:22:22;99037.56;;;7.99;66.95
72798;BME280;61084;55.816;37.036;2023-06-01T01:24:59;99040.94;;;8.01;66.52
72798;BME280;61084;55.816;37.036;2023-06-01T01:30:26;99033.22;;;7.98;66.28
72798;BME280;61084;55.816;37.036;2023-06-01T01:32:53;99034.25;;;7.96;66.38
72798;BME280;61084;55.816;37.036;2023-06-01T01:35:23;99026.41;;;7.96;66.75
72798;BME280;61084;55.816;37.036;2023-06-01T01:37:53;99029.03;;;7.96;66.60
72798;BME280;61084;55.816;37.036;2023-06-01T01:40:19;99030.78;;;7.95;66.55
72798;BME280;61084;55.816;37.036;2023-06-01T01:42:46;99029.06;;;7.94;66.86
72798;BME280;61084;55.816;37.036;2023-06-01T01:45:13;99028.25;;;7.94;67.05
72798;BME280;61084;55.816;37.036;2023-06-01T01:50:17;99029.03;;;7.96;66.96
72798;BME280;61084;55.816;37.036;2023-06-01T01:52:45;99024.56;;;7.98;67.17
72798;BME280;61084;55.816;37.036;2023-06-01T01:55:12;99021.88;;;7.99;67.12
72798;BME280;61084;55.816;37.036;2023-06-01T01:57:42;99027.88;;;8.01;66.88
72798;BME280;61084;55.816;37.036;2023-06-01T02:00:10;99023.50;;;8.02;66.75
72798;BME280;61084;55.816;37.036;2023-06-01T02:02:45;99020.72;;;8.05;66.90
72798;BME280;61084;55.816;37.036;2023-06-01T02:05:11;99028.41;;;8.08;67.05
72798;BME280;61084;55.816;37.036;2023-06-01T02:07:37;99025.72;;;8.09;67.07
72798;BME280;61084;55.816;37.036;2023-06-01T02:10:04;99016.88;;;8.12;67.25
72798;BME280;61084;55.816;37.036;2023-06-01T02:12:32;99023.66;;;8.16;67.49
72798;BME280;61084;55.816;37.036;2023-06-01T02:14:59;99020.91;;;8.19;67.23
72798;BME280;61084;55.816;37.036;2023-06-01T02:17:26;99012.91;;;8.22;67.65
72798;BME280;61084;55.816;37.036;2023-06-01T02:19:52;99017.13;;;8.24;67.51
72798;BME280;61084;55.816;37.036;2023-06-01T02:22:18;99014.41;;;8.27;67.41
72798;BME280;61084;55.816;37.036;2023-06-01T02:24:45;99021.16;;;8.31;67.77
72798;BME280;61084;55.816;37.036;2023-06-01T02:27:11;99016.66;;;8.35;67.58
72798;BME280;61084;55.816;37.036;2023-06-01T02:29:37;99021.56;;;8.41;67.94
72798;BME280;61084;55.816;37.036;2023-06-01T02:32:02;99023.00;;;8.47;68.20
72798;BME280;61084;55.816;37.036;2023-06-01T02:34:28;99022.78;;;8.51;67.96
72798;BME280;61084;55.816;37.036;2023-06-01T02:36:55;99017.22;;;8.57;68.31
72798;BME280;61084;55.816;37.036;2023-06-01T02:39:22;99019.56;;;8.63;68.26
72798;BME280;61084;55.816;37.036;2023-06-01T02:41:49;99011.38;;;8.69;68.41
72798;BME280;61084;55.816;37.036;2023-06-01T02:44:15;99012.81;;;8.75;68.38
72798;BME280;61084;55.816;37.036;2023-06-01T02:46:42;99014.13;;;8.83;68.32
72798;BME280;61084;55.816;37.036;2023-06-01T02:49:08;99014.66;;;8.90;68.71
72798;BME280;61084;55.816;37.036;2023-06-01T02:51:34;99022.03;;;8.99;68.91
72798;BME280;61084;55.816;37.036;2023-06-01T02:54:10;99021.69;;;9.05;68.80
72798;BME280;61084;55.816;37.036;2023-06-01T02:56:35;99023.16;;;9.10;68.92
72798;BME280;61084;55.816;37.036;2023-06-01T02:59:13;99023.59;;;9.19;68.76
72798;BME280;61084;55.816;37.036;2023-06-01T03:01:45;99025.81;;;9.26;69.24
72798;BME280;61084;55.816;37.036;2023-06-01T03:04:11;99025.38;;;9.34;69.32
72798;BME280;61084;55.816;37.036;2023-06-01T03:06:39;99022.19;;;9.44;68.82
72798;BME280;61084;55.816;37.036;2023-06-01T03:09:21;99026.91;;;9.53;68.63
72798;BME280;61084;55.816;37.036;2023-06-01T03:11:54;99019.47;;;9.61;68.74
72798;BME280;61084;55.816;37.036;2023-06-01T03:14:20;99021.69;;;9.69;68.67
72798;BME280;61084;55.816;37.036;2023-06-01T03:16:47;99027.34;;;9.77;68.92
72798;BME280;61084;55.816;37.036;2023-06-01T03:19:17;99035.81;;;9.82;67.98
72798;BME280;61084;55.816;37.036;2023-06-01T03:21:44;99035.44;;;9.88;68.16
72798;BME280;61084;55.816;37.036;2023-06-01T03:24:12;99035.09;;;9.94;68.23
72798;BME280;61084;55.816;37.036;2023-06-01T03:26:38;99045.09;;;10.03;68.30
72798;BME280;61084;55.816;37.036;2023-06-01T03:29:04;99039.44;;;10.11;68.40
72798;BME280;61084;55.816;37.036;2023-06-01T03:31:33;99039.09;;;10.17;68.46
72798;BME280;61084;55.816;37.036;2023-06-01T03:34:01;99036.81;;;10.26;68.32
72798;BME280;61084;55.816;37.036;2023-06-01T03:36:27;99028.38;;;10.35;68.86
72798;BME280;61084;55.816;37.036;2023-06-01T03:38:54;99024.38;;;10.44;68.69
72798;BME280;61084;55.816;37.036;2023-06-01T03:41:22;99028.06;;;10.55;69.32
72798;BME280;61084;55.816;37.036;2023-06-01T03:43:49;99025.06;;;10.61;68.87
72798;BME280;61084;55.816;37.036;2023-06-01T03:46:16;99022.75;;;10.71;69.38
72798;BME280;61084;55.816;37.036;2023-06-01T03:48:41;99014.25;;;10.82;68.86
72798;BME280;61084;55.816;37.036;2023-06-01T03:51:08;99011.81;;;10.93;68.50
72798;BME280;61084;55.816;37.036;2023-06-01T03:53:34;99013.16;;;11.00;68.19
72798;BME280;61084;55.816;37.036;2023-06-01T03:56:01;99021.50;;;11.06;67.25
72798;BME280;61084;55.816;37.036;2023-06-01T03:58:35;99024.50;;;11.14;67.01
72798;BME280;61084;55.816;37.036;2023-06-01T04:01:02;99016.22;;;11.20;67.91
72798;BME280;61084;55.816;37.036;2023-06-01T04:03:29;99014.00;;;11.28;67.75
72798;BME280;61084;55.816;37.036;2023-06-01T04:05:55;99015.19;;;11.37;67.24
72798;BME280;61084;55.816;37.036;2023-06-01T04:08:26;99016.41;;;11.46;67.11
72798;BME280;61084;55.816;37.036;2023-06-01T04:10:52;99011.50;;;11.54;66.45
72798;BME280;61084;55.816;37.036;2023-06-01T04:13:19;99017.13;;;11.62;67.07
72798;BME280;61084;55.816;37.036;2023-06-01T04:15:46;99012.16;;;11.71;67.16
72798;BME280;61084;55.816;37.036;2023-06-01T04:18:16;99017.38;;;11.85;67.52
72798;BME280;61084;55.816;37.036;2023-06-01T04:20:56;99014.91;;;11.96;67.15
72798;BME280;61084;55.816;37.036;2023-06-01T04:23:23;99012.72;;;12.03;66.69
72798;BME280;61084;55.816;37.036;2023-06-01T04:25:49;99018.41;;;12.09;66.14
72798;BME280;61084;55.816;37.036;2023-06-01T04:28:19;99013.72;;;12.15;65.66
72798;BME280;61084;55.816;37.036;2023-06-01T04:30:46;99009.63;;;12.23;65.37
72798;BME280;61084;55.816;37.036;2023-06-01T04:33:17;99019.38;;;12.35;64.98
72798;BME280;61084;55.816;37.036;2023-06-01T04:35:43;99016.94;;;12.45;65.36
72798;BME280;61084;55.816;37.036;2023-06-01T04:38:11;99011.69;;;12.57;65.34
72798;BME280;61084;55.816;37.036;2023-06-01T04:40:37;99009.00;;;12.71;65.65
72798;BME280;61084;55.816;37.036;2023-06-01T04:43:03;99013.41;;;12.83;65.24
72798;BME280;61084;55.816;37.036;2023-06-01T04:45:31;99008.25;;;12.95;64.94
72798;BME280;61084;55.816;37.036;2023-06-01T04:47:57;99013.53;;;13.07;65.14
72798;BME280;61084;55.816;37.036;2023-06-01T04:50:38;99008.19;;;13.21;64.83
72798;BME280;61084;55.816;37.036;2023-06-01T04:53:04;99015.13;;;13.35;64.21
72798;BME280;61084;55.816;37.036;2023-06-01T04:55:30;99006.78;;;13.41;63.81
72798;BME280;61084;55.816;37.036;2023-06-01T04:57:57;99006.13;;;13.50;63.22
72798;BME280;61084;55.816;37.036;2023-06-01T05:00:23;99007.38;;;13.57;62.98
72798;BME280;61084;55.816;37.036;2023-06-01T05:02:49;99012.63;;;13.70;62.72
72798;BME280;61084;55.816;37.036;2023-06-01T05:05:16;99009.81;;;13.84;62.95
72798;BME280;61084;55.816;37.036;2023-06-01T05:07:43;99008.31;;;13.92;62.29
72798;BME280;61084;55.816;37.036;2023-06-01T05:10:11;99009.56;;;13.99;62.06
72798;BME280;61084;55.816;37.036;2023-06-01T05:12:47;99009.22;;;14.04;62.42
72798;BME280;61084;55.816;37.036;2023-06-01T05:15:15;99002.09;;;14.17;62.30
72798;BME280;61084;55.816;37.036;2023-06-01T05:17:42;99002.03;;;14.29;62.11
72798;BME280;61084;55.816;37.036;2023-06-01T05:20:12;98999.31;;;14.42;61.94
72798;BME280;61084;55.816;37.036;2023-06-01T05:22:41;98992.06;;;14.57;62.55
72798;BME280;61084;55.816;37.036;2023-06-01T05:25:07;98993.41;;;14.73;62.19
72798;BME280;61084;55.816;37.036;2023-06-01T05:27:33;98998.50;;;14.87;61.85
72798;BME280;61084;55.816;37.036;2023-06-01T05:29:59;99000.91;;;15.01;61.49
72798;BME280;61084;55.816;37.036;2023-06-01T05:32:26;98995.50;;;15.14;61.76
72798;BME280;61084;55.816;37.036;2023-06-01T05:34:55;98994.22;;;15.31;61.67
72798;BME280;61084;55.816;37.036;2023-06-01T05:37:22;98990.47;;;15.44;61.08
72798;BME280;61084;55.816;37.036;2023-06-01T05:39:48;98983.53;;;15.54;60.92
72798;BME280;61084;55.816;37.036;2023-06-01T05:42:15;98981.81;;;15.64;61.21
72798;BME280;61084;55.816;37.036;2023-06-01T05:45:00;98985.16;;;15.77;60.63
72798;BME280;61084;55.816;37.036;2023-06-01T05:47:44;98986.56;;;15.93;60.04
72798;BME280;61084;55.816;37.036;2023-06-01T05:50:11;98988.81;;;16.08;59.95
72798;BME280;61084;55.816;37.036;2023-06-01T05:52:37;98984.41;;;16.18;59.28
72798;BME280;61084;55.816;37.036;2023-06-01T05:55:22;98989.94;;;16.26;58.62
72798;BME280;61084;55.816;37.036;2023-06-01T05:57:48;98986.06;;;16.30;58.59
72798;BME280;61084;55.816;37.036;2023-06-01T06:00:33;98988.28;;;16.46;58.82
72798;BME280;61084;55.816;37.036;2023-06-01T06:03:03;98984.13;;;16.64;58.69
72798;BME280;61084;55.816;37.036;2023-06-01T06:05:48;98982.72;;;16.81;58.69
72798;BME280;61084;55.816;37.036;2023-06-01T06:08:15;98980.47;;;16.86;57.87
72798;BME280;61084;55.816;37.036;2023-06-01T06:10:40;98981.13;;;16.99;57.40
72798;BME280;61084;55.816;37.036;2023-06-01T06:13:07;98983.59;;;17.11;57.25
72798;BME280;61084;55.816;37.036;2023-06-01T06:15:33;98977.34;;;17.22;57.34
72798;BME280;61084;55.816;37.036;2023-06-01T06:17:59;98971.81;;;17.34;56.73
72798;BME280;61084;55.816;37.036;2023-06-01T06:20:24;98985.47;;;17.51;57.11
72798;BME280;61084;55.816;37.036;2023-06-01T06:22:51;98980.31;;;17.68;57.27
72798;BME280;61084;55.816;37.036;2023-06-01T06:25:18;98978.84;;;17.85;56.84
72798;BME280;61084;55.816;37.036;2023-06-01T06:27:44;98976.75;;;17.98;56.15
72798;BME280;61084;55.816;37.036;2023-06-01T06:30:11;98972.13;;;18.09;56.32
72798;BME280;61084;55.816;37.036;2023-06-01T06:32:36;98963.47;;;18.17;55.32
72798;BME280;61084;55.816;37.036;2023-06-01T06:35:02;98959.69;;;18.29;55.65
72798;BME280;61084;55.816;37.036;2023-06-01T06:37:29;98960.41;;;18.41;55.43
72798;BME280;61084;55.816;37.036;2023-06-01T06:39:55;98963.50;;;18.55;55.42
72798;BME280;61084;55.816;37.036;2023-06-01T06:42:23;98961.09;;;18.71;55.45
72798;BME280;61084;55.816;37.036;2023-06-01T06:44:49;98966.78;;;18.86;55.02
72798;BME280;61084;55.816;37.036;2023-06-01T06:47:15;98963.97;;;18.97;54.98
72798;BME280;61084;55.816;37.036;2023-06-01T06:49:44;98962.66;;;19.11;53.97
72798;BME280;61084;55.816;37.036;2023-06-01T06:52:10;98960.00;;;19.20;52.74
72798;BME280;61084;55.816;37.036;2023-06-01T06:54:39;98958.72;;;19.24;53.01
72798;BME280;61084;55.816;37.036;2023-06-01T06:57:06;98952.63;;;19.32;52.99
72798;BME280;61084;55.816;37.036;2023-06-01T06:59:33;98953.22;;;19.35;53.03
72798;BME280;61084;55.816;37.036;2023-06-01T07:01:58;98952.06;;;19.38;52.53
72798;BME280;61084;55.816;37.036;2023-06-01T07:04:24;98946.88;;;19.46;52.53
72798;BME280;61084;55.816;37.036;2023-06-01T07:06:50;98949.03;;;19.60;52.31
72798;BME280;61084;55.816;37.036;2023-06-01T07:09:19;98944.50;;;19.70;51.83
72798;BME280;61084;55.816;37.036;2023-06-01T07:11:45;98938.19;;;19.89;52.44
72798;BME280;61084;55.816;37.036;2023-06-01T07:14:13;98937.44;;;19.96;51.56
72798;BME280;61084;55.816;37.036;2023-06-01T07:16:40;98941.84;;;20.05;51.32
72798;BME280;61084;55.816;37.036;2023-06-01T07:19:07;98936.63;;;20.13;50.51
72798;BME280;61084;55.816;37.036;2023-06-01T07:21:33;98934.63;;;20.15;50.85
72798;BME280;61084;55.816;37.036;2023-06-01T07:23:59;98933.06;;;20.22;50.01
72798;BME280;61084;55.816;37.036;2023-06-01T07:26:43;98932.81;;;20.34;50.18
72798;BME280;61084;55.816;37.036;2023-06-01T07:29:09;98930.22;;;20.42;50.27
72798;BME280;61084;55.816;37.036;2023-06-01T07:31:35;98930.75;;;20.45;50.53
72798;BME280;61084;55.816;37.036;2023-06-01T07:34:01;98930.66;;;20.55;49.51
72798;BME280;61084;55.816;37.036;2023-06-01T07:36:46;98932.25;;;20.65;48.85
72798;BME280;61084;55.816;37.036;2023-06-01T07:39:13;98932.28;;;20.73;49.66
72798;BME280;61084;55.816;37.036;2023-06-01T07:41:39;98929.19;;;20.86;48.08
72798;BME280;61084;55.816;37.036;2023-06-01T07:44:08;98935.28;;;20.96;49.49
72798;BME280;61084;55.816;37.036;2023-06-01T07:46:34;98929.47;;;21.00;48.65
72798;BME280;61084;55.816;37.036;2023-06-01T07:49:00;98923.41;;;21.16;48.93
72798;BME280;61084;55.816;37.036;2023-06-01T07:51:26;98925.84;;;21.35;49.28
72798;BME280;61084;55.816;37.036;2023-06-01T07:53:52;98932.25;;;21.50;49.11
72798;BME280;61084;55.816;37.036;2023-06-01T07:56:18;98935.09;;;21.57;48.02
72798;BME280;61084;55.816;37.036;2023-06-01T07:58:44;98930.78;;;21.64;47.87
72798;BME280;61084;55.816;37.036;2023-06-01T08:01:10;98920.97;;;21.72;47.83
72798;BME280;61084;55.816;37.036;2023-06-01T08:03:36;98920.13;;;21.80;47.78
72798;BME280;61084;55.816;37.036;2023-06-01T08:06:22;98921.69;;;21.91;47.98
72798;BME280;61084;55.816;37.036;2023-06-01T08:08:49;98912.50;;;21.93;46.88
72798;BME280;61084;55.816;37.036;2023-06-01T08:11:17;98905.81;;;21.97;46.68
72798;BME280;61084;55.816;37.036;2023-06-01T08:13:44;98908.34;;;22.07;46.72
72798;BME280;61084;55.816;37.036;2023-06-01T08:16:12;98907.00;;;22.11;46.20
72798;BME280;61084;55.816;37.036;2023-06-01T08:19:00;98895.81;;;22.23;45.39
72798;BME280;61084;55.816;37.036;2023-06-01T08:21:26;98898.66;;;22.30;45.90
72798;BME280;61084;55.816;37.036;2023-06-01T08:23:53;98895.31;;;22.36;45.36
72798;BME280;61084;55.816;37.036;2023-06-01T08:26:22;98903.00;;;22.47;45.59
72798;BME280;61084;55.816;37.036;2023-06-01T08:28:49;98901.50;;;22.44;44.75
72798;BME280;61084;55.816;37.036;2023-06-01T08:31:23;98892.28;;;22.47;42.83
72798;BME280;61084;55.816;37.036;2023-06-01T08:33:51;98888.47;;;22.49;44.22
72798;BME280;61084;55.816;37.036;2023-06-01T08:36:19;98900.34;;;22.55;43.66
72798;BME280;61084;55.816;37.036;2023-06-01T08:38:45;98900.03;;;22.66;43.77
72798;BME280;61084;55.816;37.036;2023-06-01T08:41:17;98891.97;;;22.74;43.32
72798;BME280;61084;55.816;37.036;2023-06-01T08:43:49;98886.59;;;22.82;43.05
72798;BME280;61084;55.816;37.036;2023-06-01T08:46:21;98892.47;;;22.86;43.19
72798;BME280;61084;55.816;37.036;2023-06-01T08:48:50;98888.75;;;22.87;42.05
72798;BME280;61084;55.816;37.036;2023-06-01T08:51:18;98884.25;;;22.87;42.76
72798;BME280;61084;55.816;37.036;2023-06-01T08:53:46;98881.53;;;22.95;42.76
72798;BME280;61084;55.816;37.036;2023-06-01T08:56:15;98871.69;;;22.96;43.03
72798;BME280;61084;55.816;37.036;2023-06-01T08:58:41;98880.03;;;22.93;41.86
72798;BME280;61084;55.816;37.036;2023-06-01T09:01:09;98881.22;;;22.98;40.06
72798;BME280;61084;55.816;37.036;2023-06-01T09:03:37;98878.16;;;23.09;40.62
72798;BME280;61084;55.816;37.036;2023-06-01T09:06:03;98876.28;;;23.10;41.49
72798;BME280;61084;55.816;37.036;2023-06-01T09:11:13;98879.25;;;23.23;41.72
72798;BME280;61084;55.816;37.036;2023-06-01T09:13:41;98875.59;;;23.24;39.65
72798;BME280;61084;55.816;37.036;2023-06-01T09:16:07;98867.38;;;23.25;38.63
72798;BME280;61084;55.816;37.036;2023-06-01T09:18:33;98875.56;;;23.40;42.22
72798;BME280;61084;55.816;37.036;2023-06-01T09:21:11;98869.63;;;23.53;40.65
72798;BME280;61084;55.816;37.036;2023-06-01T09:23:38;98868.25;;;23.57;41.37
72798;BME280;61084;55.816;37.036;2023-06-01T09:26:08;98860.69;;;23.60;39.56
72798;BME280;61084;55.816;37.036;2023-06-01T09:28:54;98885.13;;;23.65;39.74
72798;BME280;61084;55.816;37.036;2023-06-01T09:31:38;98867.41;;;23.56;38.12
72798;BME280;61084;55.816;37.036;2023-06-01T09:34:13;98872.91;;;23.63;39.69
72798;BME280;61084;55.816;37.036;2023-06-01T09:36:49;98878.88;;;23.73;39.79
72798;BME280;61084;55.816;37.036;2023-06-01T09:39:17;98872.03;;;23.70;39.74
72798;BME280;61084;55.816;37.036;2023-06-01T09:41:44;98880.28;;;23.61;38.30
72798;BME280;61084;55.816;37.036;2023-06-01T09:44:12;98875.41;;;23.64;39.10
72798;BME280;61084;55.816;37.036;2023-06-01T09:46:59;98864.28;;;23.75;38.21
72798;BME280;61084;55.816;37.036;2023-06-01T09:49:29;98861.13;;;23.72;38.18
72798;BME280;61084;55.816;37.036;2023-06-01T09:54:32;98865.44;;;23.81;39.15
72798;BME280;61084;55.816;37.036;2023-06-01T09:57:00;98871.06;;;23.86;38.96
72798;BME280;61084;55.816;37.036;2023-06-01T09:59:27;98861.16;;;23.94;39.11
72798;BME280;61084;55.816;37.036;2023-06-01T10:01:58;98874.56;;;23.94;38.70
72798;BME280;61084;55.816;37.036;2023-06-01T10:04:25;98875.09;;;23.90;37.03
72798;BME280;61084;55.816;37.036;2023-06-01T10:06:55;98869.47;;;23.99;38.83
72798;BME280;61084;55.816;37.036;2023-06-01T10:09:22;98868.19;;;24.18;37.89
72798;BME280;61084;55.816;37.036;2023-06-01T10:11:54;98869.44;;;24.30;38.23
72798;BME280;61084;55.816;37.036;2023-06-01T10:14:21;98871.22;;;24.38;38.93
72798;BME280;61084;55.816;37.036;2023-06-01T10:16:52;98866.31;;;24.41;37.57
72798;BME280;61084;55.816;37.036;2023-06-01T10:19:20;98860.75;;;24.43;38.74
72798;BME280;61084;55.816;37.036;2023-06-01T10:21:46;98864.47;;;24.42;38.38
72798;BME280;61084;55.816;37.036;2023-06-01T10:24:13;98861.25;;;24.46;38.30
72798;BME280;61084;55.816;37.036;2023-06-01T10:27:03;98863.28;;;24.44;36.59
72798;BME280;61084;55.816;37.036;2023-06-01T10:29:31;98869.47;;;24.45;37.66
72798;BME280;61084;55.816;37.036;2023-06-01T10:31:57;98854.09;;;24.39;35.15
72798;BME280;61084;55.816;37.036;2023-06-01T10:34:43;98863.94;;;24.46;37.31
72798;BME280;61084;55.816;37.036;2023-06-01T10:37:14;98862.47;;;24.58;37.70
72798;BME280;61084;55.816;37.036;2023-06-01T10:39:40;98866.63;;;24.61;37.81
72798;BME280;61084;55.816;37.036;2023-06-01T10:47:05;98863.63;;;24.79;37.42
72798;BME280;61084;55.816;37.036;2023-06-01T10:52:27;98855.28;;;24.88;37.12
72798;BME280;61084;55.816;37.036;2023-06-01T10:54:54;98858.25;;;24.93;36.05
72798;BME280;61084;55.816;37.036;2023-06-01T10:57:24;98865.13;;;24.96;36.38
72798;BME280;61084;55.816;37.036;2023-06-01T11:00:27;98853.91;;;24.92;36.31
72798;BME280;61084;55.816;37.036;2023-06-01T11:02:57;98860.94;;;24.93;36.54
72798;BME280;61084;55.816;37.036;2023-06-01T11:05:49;98868.34;;;24.77;35.29
72798;BME280;61084;55.816;37.036;2023-06-01T11:13:32;98852.78;;;24.87;36.20
72798;BME280;61084;55.816;37.036;2023-06-01T11:18:52;98865.47;;;24.78;36.21
72798;BME280;61084;55.816;37.036;2023-06-01T11:23:54;98851.81;;;24.65;36.10
72798;BME280;61084;55.816;37.036;2023-06-01T11:26:32;98851.06;;;24.71;36.14
72798;BME280;61084;55.816;37.036;2023-06-01T11:29:18;98854.69;;;24.63;36.08
72798;BME280;61084;55.816;37.036;2023-06-01T11:31:49;98856.97;;;24.52;35.58
72798;BME280;61084;55.816;37.036;2023-06-01T11:34:17;98852.91;;;24.56;36.65
72798;BME280;61084;55.816;37.036;2023-06-01T11:36:48;98847.19;;;24.73;36.47
72798;BME280;61084;55.816;37.036;2023-06-01T11:39:19;98854.94;;;24.77;36.06
72798;BME280;61084;55.816;37.036;2023-06-01T11:44:16;98846.78;;;24.85;37.09
72798;BME280;61084;55.816;37.036;2023-06-01T11:47:01;98850.66;;;24.82;34.64
72798;BME280;61084;55.816;37.036;2023-06-01T11:49:27;98852.25;;;24.77;36.27
72798;BME280;61084;55.816;37.036;2023-06-01T11:51:54;98853.41;;;24.74;36.51
72798;BME280;61084;55.816;37.036;2023-06-01T11:54:23;98851.63;;;24.66;36.62
72798;BME280;61084;55.816;37.036;2023-06-01T11:56:49;98852.22;;;24.62;36.82
72798;BME280;61084;55.816;37.036;2023-06-01T11:59:17;98841.81;;;24.59;36.89
72798;BME280;61084;55.816;37.036;2023-06-01T12:01:45;98844.88;;;24.56;36.66
72798;BME280;61084;55.816;37.036;2023-06-01T12:04:12;98836.09;;;24.62;37.13
72798;BME280;61084;55.816;37.036;2023-06-01T12:06:39;98832.56;;;24.61;37.09
72798;BME280;61084;55.816;37.036;2023-06-01T12:09:05;98834.31;;;24.54;36.76
72798;BME280;61084;55.816;37.036;2023-06-01T12:11:32;98837.09;;;24.46;36.78
72798;BME280;61084;55.816;37.036;2023-06-01T12:13:58;98832.19;;;24.50;36.31
72798;BME280;61084;55.816;37.036;2023-06-01T12:16:24;98834.88;;;24.64;36.96
72798;BME280;61084;55.816;37.036;2023-06-01T12:18:53;98833.78;;;24.73;36.81
72798;BME280;61084;55.816;37.036;2023-06-01T12:21:20;98828.41;;;24.73;36.94
72798;BME280;61084;55.816;37.036;2023-06-01T12:23:49;98830.16;;;24.66;36.39
72798;BME280;61084;55.816;37.036;2023-06-01T12:26:18;98834.63;;;24.74;36.29
72798;BME280;61084;55.816;37.036;2023-06-01T12:28:51;98825.56;;;24.90;36.26
72798;BME280;61084;55.816;37.036;2023-06-01T12:31:19;98828.69;;;25.08;37.45
72798;BME280;61084;55.816;37.036;2023-06-01T12:33:45;98822.22;;;25.02;35.37
72798;BME280;61084;55.816;37.036;2023-06-01T12:36:35;98832.13;;;25.02;36.32
72798;BME280;61084;55.816;37.036;2023-06-01T12:39:03;98827.34;;;24.83;35.27
72798;BME280;61084;55.816;37.036;2023-06-01T12:41:30;98834.38;;;24.84;36.15
72798;BME280;61084;55.816;37.036;2023-06-01T12:43:58;98831.13;;;24.88;36.37
72798;BME280;61084;55.816;37.036;2023-06-01T12:49:19;98841.69;;;25.04;33.52
72798;BME280;61084;55.816;37.036;2023-06-01T12:51:46;98828.97;;;25.13;35.38
72798;BME280;61084;55.816;37.036;2023-06-01T12:54:12;98832.13;;;25.16;35.39
72798;BME280;61084;55.816;37.036;2023-06-01T12:56:38;98833.03;;;25.23;36.09
72798;BME280;61084;55.816;37.036;2023-06-01T12:59:04;98821.25;;;25.39;35.58
72798;BME280;61084;55.816;37.036;2023-06-01T13:01:30;98816.88;;;25.53;36.20
72798;BME280;61084;55.816;37.036;2023-06-01T13:03:55;98816.50;;;25.56;36.08
72798;BME280;61084;55.816;37.036;2023-06-01T13:06:22;98813.28;;;25.46;35.24
72798;BME280;61084;55.816;37.036;2023-06-01T13:08:48;98820.59;;;25.37;35.51
72798;BME280;61084;55.816;37.036;2023-06-01T13:11:14;98821.38;;;25.31;35.78
72798;BME280;61084;55.816;37.036;2023-06-01T13:13:40;98813.03;;;25.26;35.57
72798;BME280;61084;55.816;37.036;2023-06-01T13:16:06;98818.03;;;25.29;34.79
72798;BME280;61084;55.816;37.036;2023-06-01T13:18:33;98813.94;;;25.33;35.38
72798;BME280;61084;55.816;37.036;2023-06-01T13:20:58;98814.22;;;25.38;34.98
72798;BME280;61084;55.816;37.036;2023-06-01T13:23:24;98813.78;;;25.20;33.81
72798;BME280;61084;55.816;37.036;2023-06-01T13:25:50;98821.31;;;25.10;34.68
72798;BME280;61084;55.816;37.036;2023-06-01T13:28:16;98812.41;;;24.95;34.30
72798;BME280;61084;55.816;37.036;2023-06-01T13:30:42;98812.16;;;24.90;35.01
72798;BME280;61084;55.816;37.036;2023-06-01T13:33:08;98817.31;;;24.91;35.50
72798;BME280;61084;55.816;37.036;2023-06-01T13:35:34;98811.88;;;24.85;34.95
72798;BME280;61084;55.816;37.036;2023-06-01T13:38:01;98804.25;;;24.88;34.90
72798;BME280;61084;55.816;37.036;2023-06-01T13:40:26;98808.25;;;24.92;35.75
72798;BME280;61084;55.816;37.036;2023-06-01T13:42:53;98821.13;;;24.97;35.17
72798;BME280;61084;55.816;37.036;2023-06-01T13:45:20;98813.63;;;24.92;35.02
72798;BME280;61084;55.816;37.036;2023-06-01T13:47:47;98819.91;;;24.85;35.32